Time;durP1;ratioP1;P1;durP2;ratioP2;P2;SDS_P1;SDS_P2;PMS_P1;PMS_P2;Temp;Humidity;BMP_temperature;BMP_pressure;BME280_temperature;BME280_humidity;BME280_pressure;Samples;Min_cycle;Max_cycle;Signal;HPM_P1;HPM_P2
2023/01/05 00:00:00;;;;;;;40.88;21.35;;;;;;;6.78;78.59;96051.25;4931454;29;20062;-77
2023/01/05 00:02:27;;;;;;;44.33;20.83;;;;;;;6.33;78.73;95987.69;4931521;29;20434;-77
2023/01/05 00:04:52;;;;;;;46.55;21.92;;;;;;;6.88;78.32;96064.66;4933194;29;20040;-77
2023/01/05 00:07:17;;;;;;;38.67;21.30;;;;;;;6.22;78.51;95963.97;4932529;29;20038;-77
2023/01/05 00:09:43;;;;;;;52.05;23.85;;;;;;;6.42;78.03;95973.16;4924457;29;20044;-77
2023/01/05 00:23:19;;;;;;;42.85;20.30;;;;;;;6.40;78.99;96003.41;4961913;28;20042;-77
2023/01/05 00:25:45;;;;;;;44.58;21.52;;;;;;;6.53;78.86;95997.91;4946017;28;20508;-77
2023/01/05 00:28:10;;;;;;;43.30;22.23;;;;;;;6.89;78.44;96049.63;4966184;28;20042;-77
2023/01/05 00:30:42;;;;;;;41.97;21.27;;;;;;;6.93;78.42;96043.69;4970860;28;20434;-77
2023/01/05 00:33:14;;;;;;;43.90;20.30;;;;;;;6.53;78.07;95950.50;4964005;28;20141;-77
2023/01/05 00:35:40;;;;;;;41.85;21.15;;;;;;;6.98;77.56;96043.78;4942233;28;20042;-77
2023/01/05 00:38:07;;;;;;;39.03;20.90;;;;;;;6.89;77.27;95991.63;4968418;28;20081;-77
2023/01/05 00:40:33;;;;;;;41.08;20.98;;;;;;;6.78;77.22;95958.97;4968275;28;20034;-77
2023/01/05 00:42:59;;;;;;;39.25;20.35;;;;;;;6.64;77.28;95962.84;4953056;28;20042;-77
2023/01/05 00:45:24;;;;;;;38.40;20.20;;;;;;;6.42;77.32;95931.00;4970457;28;20042;-77
2023/01/05 00:47:53;;;;;;;39.60;19.90;;;;;;;6.71;76.91;95944.31;4966106;28;20023;-77
2023/01/05 00:50:21;;;;;;;39.60;20.08;;;;;;;6.74;76.49;95935.91;4966947;28;20041;-77
2023/01/05 00:52:47;;;;;;;40.65;19.85;;;;;;;7.00;75.98;95953.91;4970350;28;20041;-77
2023/01/05 00:55:13;;;;;;;39.80;19.85;;;;;;;7.51;75.91;96019.06;4953228;28;20041;-77
2023/01/05 00:57:39;;;;;;;34.95;18.67;;;;;;;7.41;75.40;96005.66;4970510;28;20039;-77
2023/01/05 01:00:07;;;;;;;33.83;18.20;;;;;;;7.46;75.36;96034.81;4949761;29;20090;-77
2023/01/05 01:02:33;;;;;;;37.40;19.23;;;;;;;7.44;75.51;96020.22;4961813;28;20035;-75
2023/01/05 01:04:58;;;;;;;36.30;19.05;;;;;;;7.45;75.42;96017.38;4952738;28;20493;-76
2023/01/05 01:07:23;;;;;;;39.25;20.35;;;;;;;7.48;75.25;96019.50;4960588;28;20470;-75
2023/01/05 01:09:49;;;;;;;38.38;19.90;;;;;;;7.70;74.88;96036.31;4952480;28;20031;-75
2023/01/05 01:12:14;;;;;;;39.15;19.95;;;;;;;7.47;74.81;96020.59;4951083;28;20027;-75
2023/01/05 01:14:40;;;;;;;36.83;20.20;;;;;;;7.65;75.12;96032.78;4960574;28;20041;-75
2023/01/05 01:17:06;;;;;;;35.92;19.05;;;;;;;7.35;74.60;95990.75;4978226;28;20027;-75
2023/01/05 01:19:31;;;;;;;39.50;19.88;;;;;;;7.37;74.26;95983.41;4978000;28;20065;-75
2023/01/05 01:21:56;;;;;;;41.30;20.63;;;;;;;7.52;75.13;96033.06;4977470;28;20043;-75
2023/01/05 01:24:26;;;;;;;33.15;17.60;;;;;;;7.17;75.01;95970.59;4959963;28;20026;-75
2023/01/05 01:26:53;;;;;;;35.35;19.35;;;;;;;7.47;75.13;96017.94;4978134;28;20049;-75
2023/01/05 01:29:20;;;;;;;37.38;19.00;;;;;;;7.23;74.96;95964.41;4977818;28;20173;-75
2023/01/05 01:31:50;;;;;;;35.45;19.67;;;;;;;7.15;75.00;95964.78;4953961;28;20030;-76
2023/01/05 01:34:16;;;;;;;37.30;20.10;;;;;;;7.28;75.11;95971.63;4976530;28;20123;-75
2023/01/05 01:36:42;;;;;;;34.80;18.60;;;;;;;7.03;74.64;95934.16;4960310;28;20031;-76
2023/01/05 01:39:07;;;;;;;35.05;18.92;;;;;;;7.26;75.62;95997.41;4977437;28;20493;-75
2023/01/05 01:41:33;;;;;;;33.47;18.95;;;;;;;7.33;75.43;95988.34;4977678;28;20470;-75
2023/01/05 01:43:59;;;;;;;34.63;18.40;;;;;;;7.26;75.12;95948.09;4977792;28;20042;-75
2023/01/05 01:46:25;;;;;;;38.92;19.83;;;;;;;7.54;74.89;95981.66;4960492;28;20106;-75
2023/01/05 01:48:56;;;;;;;38.42;19.02;;;;;;;7.64;74.54;95978.38;4956457;28;20027;-75
2023/01/05 01:51:30;;;;;;;37.80;19.27;;;;;;;7.69;74.22;95981.13;4968699;28;20027;-75
2023/01/05 01:54:00;;;;;;;34.30;18.15;;;;;;;7.69;74.15;95976.66;4977560;28;20026;-76
2023/01/05 01:56:31;;;;;;;36.45;18.40;;;;;;;7.68;74.17;95971.63;4977878;28;20405;-75
2023/01/05 01:58:57;;;;;;;;;;;;;;;7.70;73.66;95965.03;4972993;28;20052;-75
2023/01/05 02:01:22;;;;;;;31.58;18.13;;;;;;;7.42;73.74;95914.91;4977482;28;20025;-75
2023/01/05 02:03:48;;;;;;;32.53;17.52;;;;;;;7.75;73.73;95961.72;4977322;28;20035;-75
2023/01/05 02:06:13;;;;;;;34.85;19.02;;;;;;;7.48;73.75;95921.88;4977782;28;20515;-75
2023/01/05 02:08:39;;;;;;;34.92;19.67;;;;;;;7.72;73.58;95957.69;4974704;28;20034;-75
2023/01/05 02:11:32;;;;;;;36.00;19.13;;;;;;;7.73;73.76;95947.94;4974463;28;20038;-75
2023/01/05 02:14:14;;;;;;;29.60;16.13;;;;;;;7.71;73.80;95940.25;4970625;28;20027;-75
2023/01/05 02:17:08;;;;;;;36.55;18.80;;;;;;;7.40;73.48;95892.44;4975523;28;20045;-76
2023/01/05 02:19:52;;;;;;;34.65;18.65;;;;;;;7.76;73.57;95931.63;4968805;28;20066;-76
2023/01/05 02:22:17;;;;;;;33.65;17.98;;;;;;;7.79;73.29;95936.41;4975018;28;20057;-76
2023/01/05 02:25:11;;;;;;;34.55;19.85;;;;;;;7.79;73.22;95936.41;4973267;28;20042;-76
2023/01/05 02:28:13;;;;;;;36.47;20.33;;;;;;;7.78;73.24;95939.31;4974421;28;20034;-76
2023/01/05 02:30:59;;;;;;;36.75;18.95;;;;;;;7.76;73.39;95934.28;4957529;28;20043;-76
2023/01/05 02:33:53;;;;;;;37.53;19.27;;;;;;;7.76;73.29;95934.28;4957383;28;20066;-76
2023/01/05 02:36:27;;;;;;;36.70;19.27;;;;;;;7.43;73.37;95881.38;4972820;28;20488;-76
2023/01/05 02:39:14;;;;;;;46.63;23.73;;;;;;;7.78;73.58;95939.31;4974714;28;20076;-76
2023/01/05 02:42:14;;;;;;;54.53;25.92;;;;;;;7.41;73.33;95878.97;4954285;28;20051;-76
2023/01/05 02:44:39;;;;;;;51.53;23.88;;;;;;;7.42;73.42;95883.22;4968106;28;20093;-76
2023/01/05 02:47:27;;;;;;;54.38;26.10;;;;;;;7.75;73.64;95930.84;4974378;28;20461;-76
2023/01/05 02:50:06;;;;;;;47.13;25.02;;;;;;;7.42;73.73;95871.88;4974259;28;20069;-76
2023/01/05 02:52:39;;;;;;;49.30;24.88;;;;;;;7.80;73.65;95924.03;4967856;28;20023;-76
2023/01/05 02:55:09;;;;;;;47.08;25.02;;;;;;;7.80;73.82;95921.38;4973819;28;20477;-76
2023/01/05 02:57:46;;;;;;;52.58;23.38;;;;;;;7.38;73.52;95847.00;4966894;28;20138;-76
2023/01/05 03:00:17;;;;;;;48.20;23.77;;;;;;;7.73;73.73;95903.84;4956496;28;20433;-76
2023/01/05 03:02:48;;;;;;;44.97;24.35;;;;;;;7.73;73.98;95903.84;4953290;29;20110;-76
2023/01/05 03:05:20;;;;;;;47.07;24.07;;;;;;;7.72;73.67;95896.97;4949704;28;20066;-76
2023/01/05 03:07:46;;;;;;;45.50;24.13;;;;;;;7.71;73.91;95903.28;4973419;28;20049;-76
2023/01/05 03:15:49;;;;;;;47.47;24.40;;;;;;;7.45;74.02;95840.53;4967977;28;20101;-76
2023/01/05 03:18:19;;;;;;;50.88;23.40;;;;;;;7.54;73.93;95849.69;4967091;28;20122;-76
2023/01/05 03:20:49;;;;;;;38.58;21.17;;;;;;;7.32;74.11;95803.91;4973770;28;20063;-76
2023/01/05 03:38:09;;;;;;;38.65;21.05;;;;;;;7.30;73.69;95813.88;4973866;28;20457;-76
2023/01/05 03:40:37;;;;;;;39.03;20.30;;;;;;;7.48;73.83;95826.03;4970018;28;20054;-76
2023/01/05 03:43:04;;;;;;;37.40;19.02;;;;;;;7.20;73.87;95779.41;4973340;28;20034;-76
2023/01/05 03:45:38;;;;;;;42.47;21.70;;;;;;;7.67;73.58;95857.28;4973449;28;20030;-76
2023/01/05 03:48:03;;;;;;;40.50;21.20;;;;;;;7.24;73.89;95788.47;4955534;28;20037;-76
2023/01/05 03:50:29;;;;;;;40.95;21.75;;;;;;;7.55;73.73;95838.06;4973183;28;20469;-77
2023/01/05 03:52:54;;;;;;;39.85;20.90;;;;;;;7.57;74.01;95864.22;4972110;28;20134;-77
2023/01/05 03:55:20;;;;;;;42.70;19.98;;;;;;;7.49;73.78;95836.38;4972450;28;20552;-77
2023/01/05 03:57:45;;;;;;;34.40;18.88;;;;;;;7.65;73.80;95866.47;4972813;28;20035;-75
2023/01/05 04:00:11;;;;;;;31.30;17.00;;;;;;;7.40;73.63;95816.69;4972786;28;20417;-76
2023/01/05 04:02:36;;;;;;;33.15;17.88;;;;;;;7.30;73.83;95790.94;4969921;28;20085;-75
2023/01/05 04:05:02;;;;;;;35.10;20.10;;;;;;;7.43;74.02;95844.44;4968613;28;20122;-75
2023/01/05 04:07:27;;;;;;;42.28;20.58;;;;;;;7.19;74.52;95827.91;4972726;28;20039;-75
2023/01/05 04:09:53;;;;;;;39.15;19.65;;;;;;;7.33;74.70;95840.59;4972531;28;20038;-75
2023/01/05 04:12:18;;;;;;;46.20;21.27;;;;;;;6.97;74.01;95761.84;4973105;28;20027;-76
2023/01/05 04:14:44;;;;;;;40.75;20.60;;;;;;;7.29;73.77;95797.25;4972254;28;20062;-76
2023/01/05 04:17:09;;;;;;;40.10;20.38;;;;;;;7.48;73.46;95815.50;4954969;28;20058;-76
2023/01/05 04:19:35;;;;;;;40.28;20.63;;;;;;;7.64;73.93;95843.75;4971573;28;20041;-76
2023/01/05 04:22:00;;;;;;;46.30;22.40;;;;;;;7.67;73.43;95838.00;4972162;28;20054;-75
2023/01/05 04:24:25;;;;;;;47.05;23.35;;;;;;;7.65;73.45;95832.97;4966857;28;20489;-75
2023/01/05 04:26:51;;;;;;;57.55;27.80;;;;;;;7.38;73.67;95796.88;4972361;28;20034;-76
2023/01/05 04:29:16;;;;;;;66.05;31.05;;;;;;;7.40;73.72;95797.44;4955110;28;20437;-76
2023/01/05 04:31:42;;;;;;;58.00;29.88;;;;;;;7.29;73.52;95767.44;4972524;28;20026;-76
2023/01/05 04:34:07;;;;;;;64.55;32.13;;;;;;;7.56;73.88;95823.03;4972555;28;20042;-76
2023/01/05 04:36:32;;;;;;;62.63;32.28;;;;;;;7.29;73.90;95770.88;4970982;28;20077;-76
2023/01/05 04:38:58;;;;;;;66.78;29.77;;;;;;;7.13;73.90;95755.00;4966957;28;20041;-76
2023/01/05 04:41:23;;;;;;;61.40;31.75;;;;;;;7.28;73.82;95784.28;4971917;28;20035;-76
2023/01/05 04:43:49;;;;;;;61.30;30.63;;;;;;;7.48;73.76;95807.56;4972144;28;20077;-76
2023/01/05 04:46:14;;;;;;;67.13;31.27;;;;;;;7.16;73.75;95760.63;4971908;28;20043;-76
2023/01/05 04:48:39;;;;;;;63.53;28.30;;;;;;;7.40;74.70;95832.50;4971918;28;20035;-76
2023/01/05 04:51:05;;;;;;;56.33;26.50;;;;;;;6.87;74.54;95756.38;4963590;28;20138;-76
2023/01/05 04:53:32;;;;;;;58.05;26.50;;;;;;;7.22;74.66;95807.16;4954489;28;20030;-76
2023/01/05 04:55:57;;;;;;;51.25;24.73;;;;;;;7.12;75.70;95835.97;4949523;28;20031;-76
2023/01/05 04:58:23;;;;;;;53.20;26.25;;;;;;;6.46;76.27;95768.78;4971683;28;20106;-76
2023/01/05 05:00:50;;;;;;;56.65;25.92;;;;;;;6.91;76.46;95852.44;4972022;28;20437;-76
2023/01/05 05:03:15;;;;;;;53.15;24.77;;;;;;;7.00;76.77;95853.69;4971928;28;20042;-76
2023/01/05 05:05:41;;;;;;;56.20;26.77;;;;;;;6.36;76.46;95728.25;4954419;28;20058;-76
2023/01/05 05:08:07;;;;;;;57.00;25.52;;;;;;;6.79;76.13;95791.06;4950145;29;20063;-76
2023/01/05 05:10:32;;;;;;;47.33;23.98;;;;;;;6.57;76.46;95793.50;4930351;28;20102;-76
2023/01/05 05:12:58;;;;;;;74.03;30.00;;;;;;;6.88;75.99;95822.06;4961862;28;20058;-76
2023/01/05 05:15:23;;;;;;;58.05;27.35;;;;;;;6.89;77.11;95854.50;4965211;28;20049;-76
2023/01/05 05:17:49;;;;;;;58.80;27.30;;;;;;;5.94;77.06;95714.50;4936988;28;20038;-77
2023/01/05 05:20:14;;;;;;;58.03;25.05;;;;;;;6.38;76.19;95773.63;4952057;28;20038;-77
2023/01/05 05:22:40;;;;;;;57.78;26.63;;;;;;;7.01;75.84;95859.75;4934325;29;20076;-76
2023/01/05 05:25:07;;;;;;;53.55;26.75;;;;;;;6.94;76.11;95834.31;4942432;29;20146;-76
2023/01/05 05:27:32;;;;;;;55.17;26.08;;;;;;;7.13;75.71;95865.78;4944671;29;20050;-76
2023/01/05 05:29:58;;;;;;;56.42;25.67;;;;;;;6.99;75.60;95828.34;4940352;28;20098;-76
2023/01/05 05:32:23;;;;;;;60.28;26.83;;;;;;;6.77;75.19;95791.28;4927453;28;20077;-76
2023/01/05 05:34:49;;;;;;;51.08;25.42;;;;;;;6.96;76.15;95845.44;4932931;28;20035;-76
2023/01/05 05:37:14;;;;;;;39.72;22.05;;;;;;;6.51;76.24;95784.69;4938018;28;20039;-76
2023/01/05 05:39:39;;;;;;;48.50;22.90;;;;;;;6.63;76.60;95797.88;4941431;28;20038;-76
2023/01/05 05:42:05;;;;;;;46.08;23.75;;;;;;;6.65;75.98;95785.22;4945338;28;20032;-77
2023/01/05 05:44:30;;;;;;;47.90;25.50;;;;;;;6.22;76.01;95708.50;4932498;29;20054;-76
2023/01/05 05:46:56;;;;;;;51.72;24.20;;;;;;;6.59;75.85;95763.25;4942072;28;20429;-76
2023/01/05 05:49:21;;;;;;;48.92;23.67;;;;;;;6.30;75.95;95727.38;4945234;28;20122;-76
2023/01/05 05:51:47;;;;;;;49.95;22.63;;;;;;;6.95;76.29;95821.94;4943273;28;20090;-78
2023/01/05 05:54:13;;;;;;;52.13;25.95;;;;;;;6.68;76.01;95773.44;4938000;29;20126;-77
2023/01/05 05:56:38;;;;;;;49.90;24.27;;;;;;;6.94;75.89;95815.84;4947334;29;20113;-76
2023/01/05 05:59:03;;;;;;;51.63;24.10;;;;;;;6.51;75.60;95747.00;4946922;28;20031;-76
2023/01/05 06:01:29;;;;;;;48.88;24.95;;;;;;;6.94;75.73;95807.16;4938556;28;20036;-77
2023/01/05 06:03:54;;;;;;;55.40;24.17;;;;;;;6.66;75.46;95755.22;4945088;28;20501;-77
2023/01/05 06:06:20;;;;;;;46.78;23.13;;;;;;;6.32;75.42;95711.34;4946387;29;20035;-77
2023/01/05 06:08:45;;;;;;;59.92;24.05;;;;;;;6.92;75.41;95803.94;4932602;28;20069;-76
2023/01/05 06:11:10;;;;;;;58.20;24.00;;;;;;;6.88;75.50;95800.97;4943239;28;20035;-77
2023/01/05 06:13:36;;;;;;;43.53;22.17;;;;;;;6.10;75.52;95675.06;4936732;28;20039;-77
2023/01/05 06:16:01;;;;;;;55.30;24.13;;;;;;;6.27;75.81;95705.94;4934470;29;20568;-77
2023/01/05 06:18:27;;;;;;;54.72;24.60;;;;;;;6.74;75.40;95772.47;4943308;28;20038;-79
2023/01/05 06:20:53;;;;;;;60.97;24.83;;;;;;;6.85;76.12;95796.19;4930159;28;20047;-78
2023/01/05 06:23:18;;;;;;;51.50;24.67;;;;;;;6.20;75.86;95690.28;4933806;28;20050;-77
2023/01/05 06:25:44;;;;;;;52.58;23.80;;;;;;;6.57;76.19;95751.34;4939688;28;20040;-78
2023/01/05 06:28:09;;;;;;;49.17;24.08;;;;;;;6.84;76.03;95794.59;4948880;28;20137;-79
2023/01/05 06:30:34;;;;;;;57.65;24.40;;;;;;;6.32;76.03;95708.69;4938042;28;20027;-79
2023/01/05 06:33:01;;;;;;;53.10;24.73;;;;;;;6.48;76.17;95731.69;4941470;28;20045;-79
2023/01/05 06:35:27;;;;;;;53.47;24.27;;;;;;;6.44;75.82;95722.63;4943885;28;20050;-79
2023/01/05 06:37:52;;;;;;;56.65;25.98;;;;;;;6.87;76.07;95793.28;4938727;28;20584;-79
2023/01/05 06:40:18;;;;;;;48.50;24.35;;;;;;;6.20;76.33;95683.19;4941856;28;20077;-78
2023/01/05 06:42:43;;;;;;;69.57;27.45;;;;;;;6.67;76.04;95753.38;4941973;28;20042;-79
2023/01/05 06:45:13;;;;;;;74.20;29.98;;;;;;;6.35;76.36;95697.69;4940711;28;20453;-79
2023/01/05 06:47:38;;;;;;;67.13;27.60;;;;;;;6.43;75.96;95699.94;4955116;28;20109;-78
2023/01/05 06:50:04;;;;;;;70.03;28.27;;;;;;;6.68;76.13;95749.72;4942957;28;20521;-78
2023/01/05 06:52:35;;;;;;;62.75;26.73;;;;;;;6.93;76.21;95781.81;4934652;28;20037;-77
2023/01/05 06:55:03;;;;;;;72.43;28.80;;;;;;;6.57;76.18;95712.59;4944226;28;20063;-78
2023/01/05 06:57:29;;;;;;;69.03;27.85;;;;;;;6.92;76.14;95759.94;4940637;28;21212;-77
2023/01/05 06:59:54;;;;;;;69.18;27.90;;;;;;;6.26;75.63;95665.63;4943793;28;20127;-77
2023/01/05 07:02:19;;;;;;;71.38;28.00;;;;;;;6.50;76.05;95704.03;4934727;28;20047;-81
2023/01/05 07:04:45;;;;;;;74.72;26.35;;;;;;;6.98;76.04;95774.81;4932288;28;20039;-77
2023/01/05 07:07:12;;;;;;;67.90;28.80;;;;;;;6.86;76.26;95749.53;4934649;28;20138;-77
2023/01/05 07:09:38;;;;;;;80.60;32.58;;;;;;;6.98;76.47;95763.44;4938976;28;20106;-77
2023/01/05 07:12:03;;;;;;;65.90;29.77;;;;;;;6.61;75.69;95691.88;4934815;28;20062;-81
2023/01/05 07:14:29;;;;;;;72.82;30.10;;;;;;;7.10;76.01;95787.94;4936538;28;20054;-79
2023/01/05 07:16:54;;;;;;;67.22;29.23;;;;;;;6.43;76.38;95727.09;4936374;28;20054;-78
2023/01/05 07:19:19;;;;;;;68.75;31.67;;;;;;;6.41;77.35;95720.44;4939792;28;20469;-78
2023/01/05 07:21:45;;;;;;;86.68;34.97;;;;;;;6.46;76.60;95699.50;4941754;28;20059;-80
2023/01/05 07:24:10;;;;;;;72.05;36.70;;;;;;;6.81;76.52;95736.25;4947178;28;20490;-78
2023/01/05 07:26:36;;;;;;;87.88;47.17;;;;;;;6.77;76.65;95725.38;4927856;28;20038;-77
2023/01/05 07:29:01;;;;;;;91.97;45.35;;;;;;;7.07;76.22;95758.59;4945464;28;20049;-77
2023/01/05 07:31:28;;;;;;;95.10;40.78;;;;;;;6.91;76.30;95739.88;4947304;28;20387;-78
2023/01/05 07:33:53;;;;;;;75.85;32.63;;;;;;;7.07;76.00;95742.78;4948101;28;20035;-78
2023/01/05 07:36:19;;;;;;;79.40;32.33;;;;;;;7.27;75.88;95766.84;4930608;28;20489;-78
2023/01/05 07:38:44;;;;;;;75.60;35.42;;;;;;;7.07;75.30;95722.47;4953134;28;20043;-78
2023/01/05 07:41:10;;;;;;;79.43;35.40;;;;;;;7.04;75.10;95714.22;4929189;28;20690;-78
2023/01/05 07:43:35;;;;;;;81.40;34.42;;;;;;;7.34;75.04;95751.66;4952933;28;20073;-77
2023/01/05 07:46:02;;;;;;;69.72;33.72;;;;;;;7.34;75.35;95760.38;4952941;28;20908;-77
2023/01/05 07:48:28;;;;;;;67.85;34.60;;;;;;;6.89;75.00;95683.94;4946180;28;20035;-78
2023/01/05 07:51:02;;;;;;;67.78;32.95;;;;;;;6.89;74.90;95678.66;4934519;28;20048;-80
2023/01/05 07:53:33;;;;;;;73.57;32.92;;;;;;;6.80;75.14;95663.44;4945259;28;20038;-79
2023/01/05 07:56:00;;;;;;;65.60;30.95;;;;;;;7.33;75.29;95750.06;4927279;28;20069;-78
2023/01/05 07:58:31;;;;;;;73.03;32.08;;;;;;;7.43;75.12;95747.59;4936735;28;20101;-79
2023/01/05 08:01:02;;;;;;;71.00;32.53;;;;;;;6.71;74.79;95635.91;4940503;28;20077;-80
2023/01/05 08:03:28;;;;;;;61.42;31.25;;;;;;;6.65;75.02;95619.19;4941510;28;20160;-79
2023/01/05 08:05:53;;;;;;;51.10;26.55;;;;;;;6.58;74.74;95592.19;4947091;28;20046;-83
2023/01/05 08:08:19;;;;;;;43.95;23.92;;;;;;;7.62;74.50;95748.97;4928519;28;20520;-80
2023/01/05 08:10:44;;;;;;;52.55;26.23;;;;;;;6.46;74.32;95554.56;4943587;28;20166;-82
2023/01/05 08:15:56;;;;;;;45.55;23.75;;;;;;;7.27;73.73;95701.69;4942956;28;20942;-78
2023/01/05 08:18:22;;;;;;;52.03;24.00;;;;;;;7.46;74.30;95728.66;4927417;28;20035;-78
2023/01/05 08:20:59;;;;;;;48.83;25.77;;;;;;;6.58;74.00;95560.56;4944758;28;20141;-78
2023/01/05 08:23:26;;;;;;;51.55;24.77;;;;;;;7.54;73.72;95691.31;4927485;28;20540;-78
2023/01/05 08:25:51;;;;;;;48.08;23.80;;;;;;;7.33;73.84;95682.28;4927791;28;20536;-78
2023/01/05 08:28:17;;;;;;;52.90;24.23;;;;;;;7.53;74.16;95734.59;4937922;28;20027;-78
2023/01/05 08:30:43;;;;;;;47.22;25.17;;;;;;;7.72;73.34;95735.91;4939426;28;20035;-77
2023/01/05 08:33:09;;;;;;;49.30;24.80;;;;;;;7.49;72.89;95679.84;4925991;28;20065;-78
2023/01/05 08:35:40;;;;;;;50.55;25.88;;;;;;;7.25;72.60;95611.44;4928185;29;20045;-78
2023/01/05 08:38:06;;;;;;;48.45;25.83;;;;;;;7.42;72.33;95645.72;4940332;28;20138;-78
2023/01/05 08:40:31;;;;;;;53.58;26.27;;;;;;;7.73;71.82;95692.63;4941519;28;20039;-78
2023/01/05 08:42:57;;;;;;;52.95;26.38;;;;;;;7.61;72.00;95659.47;4937347;28;20045;-79
2023/01/05 08:45:22;;;;;;;61.40;27.35;;;;;;;7.55;72.40;95671.00;4916081;29;20035;-78
2023/01/05 08:47:47;;;;;;;57.92;25.85;;;;;;;7.42;72.34;95653.63;4938818;28;20042;-79
2023/01/05 08:50:13;;;;;;;54.58;27.58;;;;;;;7.52;72.72;95664.34;4941735;28;20070;-79
2023/01/05 08:52:39;;;;;;;55.03;28.48;;;;;;;7.59;72.47;95657.06;4935675;28;20035;-81
2023/01/05 08:55:06;;;;;;;67.57;31.75;;;;;;;7.51;72.01;95638.19;4923966;28;20038;-79
2023/01/05 08:57:32;;;;;;;63.60;30.77;;;;;;;7.74;71.70;95651.19;4942107;28;20588;-82
2023/01/05 08:59:58;;;;;;;64.13;31.00;;;;;;;7.88;71.80;95668.28;4940843;28;20035;-79
2023/01/05 09:02:24;;;;;;;63.67;31.25;;;;;;;7.84;71.52;95647.91;4930888;28;20466;-79
2023/01/05 09:04:49;;;;;;;62.28;32.03;;;;;;;7.88;71.30;95649.00;4933279;28;20541;-77
2023/01/05 09:07:15;;;;;;;60.28;30.60;;;;;;;8.08;71.04;95662.47;4922423;28;20570;-77
2023/01/05 09:09:40;;;;;;;60.00;30.65;;;;;;;7.61;70.84;95588.19;4936329;28;20111;-78
2023/01/05 09:12:06;;;;;;;62.42;31.13;;;;;;;8.18;71.21;95672.34;4939919;28;20035;-77
2023/01/05 09:14:35;;;;;;;61.50;32.55;;;;;;;7.78;71.94;95625.13;4928707;28;20466;-76
2023/01/05 09:17:00;;;;;;;70.55;32.83;;;;;;;8.13;71.27;95659.88;4938623;28;20086;-77
2023/01/05 09:19:26;;;;;;;61.35;30.50;;;;;;;7.94;71.56;95614.47;4939355;28;20035;-77
2023/01/05 09:21:52;;;;;;;62.92;29.98;;;;;;;7.84;71.71;95589.81;4937567;28;20062;-77
2023/01/05 09:24:18;;;;;;;60.00;31.00;;;;;;;7.29;71.02;95491.22;4938787;28;20078;-78
2023/01/05 09:26:43;;;;;;;54.75;31.02;;;;;;;7.96;71.12;95559.56;4946549;28;20054;-78
2023/01/05 09:29:09;;;;;;;60.15;30.95;;;;;;;7.77;70.51;95517.91;4942690;28;20911;-77
2023/01/05 09:31:35;;;;;;;50.58;27.25;;;;;;;7.89;70.06;95542.31;4938041;28;20036;-77
2023/01/05 09:34:00;;;;;;;60.40;29.40;;;;;;;8.38;70.53;95607.34;4941285;28;20043;-78
2023/01/05 09:36:26;;;;;;;50.80;27.98;;;;;;;8.51;69.49;95616.72;4941970;28;20093;-79
2023/01/05 09:38:53;;;;;;;52.13;27.27;;;;;;;8.25;68.97;95552.22;4944131;28;20070;-77
2023/01/05 09:41:28;;;;;;;53.75;26.48;;;;;;;8.80;68.53;95610.13;4946169;28;20326;-77
2023/01/05 09:44:01;;;;;;;54.17;29.48;;;;;;;7.97;69.15;95508.34;4942245;28;20829;-79
2023/01/05 09:46:32;;;;;;;47.42;27.13;;;;;;;8.84;68.29;95594.56;4942529;28;20066;-76
2023/01/05 09:49:01;;;;;;;54.10;27.75;;;;;;;8.43;67.90;95530.75;4943012;28;20035;-79
2023/01/05 09:51:28;;;;;;;48.38;27.13;;;;;;;8.43;67.41;95514.09;4938997;28;20039;-77
2023/01/05 09:53:54;;;;;;;49.45;27.38;;;;;;;8.33;66.97;95475.16;4934889;28;20035;-77
2023/01/05 09:56:40;;;;;;;51.40;26.92;;;;;;;9.13;66.98;95579.97;4936269;28;20145;-77
2023/01/05 09:59:14;;;;;;;49.75;26.38;;;;;;;8.98;66.70;95549.97;4939234;28;20051;-78
2023/01/05 10:01:41;;;;;;;42.00;24.35;;;;;;;9.31;66.04;95559.44;4957904;28;20050;-77
2023/01/05 10:04:23;;;;;;;49.03;25.02;;;;;;;9.42;65.69;95559.25;4942533;28;20077;-77
2023/01/05 10:06:57;;;;;;;53.03;26.50;;;;;;;9.10;65.21;95510.88;4942522;28;20039;-77
2023/01/05 10:09:29;;;;;;;52.30;24.95;;;;;;;9.26;65.19;95542.47;4940278;28;20035;-77
2023/01/05 10:14:49;;;;;;;48.90;25.73;;;;;;;9.13;64.13;95479.41;4939567;28;20134;-78
2023/01/05 10:17:21;;;;;;;46.28;25.85;;;;;;;9.49;65.12;95546.56;4956629;28;20166;-77
2023/01/05 10:19:47;;;;;;;49.45;23.73;;;;;;;9.51;65.00;95541.81;4941793;28;20509;-77
2023/01/05 10:22:45;;;;;;;47.95;24.13;;;;;;;9.68;64.71;95544.28;4938746;28;20150;-78
2023/01/05 10:25:46;;;;;;;43.97;25.13;;;;;;;9.92;63.46;95465.13;4929669;28;20510;-75
2023/01/05 10:28:43;;;;;;;51.75;23.63;;;;;;;11.11;60.88;95531.00;4943208;28;20524;-78
2023/01/05 10:31:22;;;;;;;57.53;25.65;;;;;;;10.99;59.26;95484.56;4935802;28;20098;-77
2023/01/05 10:33:57;;;;;;;49.63;26.20;;;;;;;11.00;58.78;95452.44;4943001;28;20082;-77
2023/01/05 10:36:55;;;;;;;50.20;27.08;;;;;;;11.95;57.63;95516.16;4934221;29;20708;-80
2023/01/05 10:39:35;;;;;;;45.08;24.30;;;;;;;12.28;56.32;95526.06;4936308;28;20475;-76
2023/01/05 10:42:10;;;;;;;46.55;24.13;;;;;;;12.41;55.83;95483.97;4946166;28;20042;-75
2023/01/05 10:44:57;;;;;;;45.13;24.50;;;;;;;13.03;54.84;95507.94;4945595;28;20027;-76
2023/01/05 10:47:26;;;;;;;47.25;25.58;;;;;;;13.39;54.21;95502.28;4942853;29;20368;-76
2023/01/05 10:49:53;;;;;;;45.00;24.42;;;;;;;13.57;53.29;95474.13;4935812;28;20054;-76
2023/01/05 10:52:21;;;;;;;46.90;25.38;;;;;;;13.78;52.11;95473.59;4944478;29;20113;-76
2023/01/05 10:54:55;;;;;;;49.30;25.38;;;;;;;14.20;51.10;95474.63;4943834;28;20434;-77
2023/01/05 10:57:27;;;;;;;43.83;24.42;;;;;;;14.42;50.95;95487.44;4945445;29;20037;-77
2023/01/05 10:59:53;;;;;;;;;;;;;;;14.61;50.14;95475.63;4938160;29;20086;-78
2023/01/05 11:02:19;;;;;;;52.25;25.55;;;;;;;14.25;50.26;95408.66;4936585;28;19922;-78
2023/01/05 11:04:49;;;;;;;46.67;24.60;;;;;;;14.47;49.07;95434.78;4940997;28;20057;-77
2023/01/05 11:07:14;;;;;;;50.70;26.23;;;;;;;14.26;49.24;95396.13;4928123;28;20457;-77
2023/01/05 11:09:43;;;;;;;42.85;24.40;;;;;;;14.49;48.44;95440.63;4947022;28;20039;-78
2023/01/05 11:12:18;;;;;;;52.03;23.70;;;;;;;14.27;48.63;95427.81;4939184;28;20921;-77
2023/01/05 11:14:49;;;;;;;46.20;24.95;;;;;;;14.02;48.79;95382.09;4930269;28;20126;-80
2023/01/05 11:17:22;;;;;;;49.78;25.92;;;;;;;14.40;48.74;95444.22;4953570;28;20319;-79
2023/01/05 11:19:55;;;;;;;43.67;25.50;;;;;;;14.39;48.93;95454.09;4919050;28;20035;-78
2023/01/05 11:22:27;;;;;;;51.72;25.38;;;;;;;14.33;49.83;95449.91;4940410;28;20055;-80
2023/01/05 11:24:53;;;;;;;48.45;25.60;;;;;;;14.36;50.23;95451.97;4959793;28;20043;-78
2023/01/05 11:27:18;;;;;;;43.67;23.35;;;;;;;14.13;49.68;95405.63;4941415;28;20529;-78
2023/01/05 11:29:44;;;;;;;44.42;24.60;;;;;;;14.44;49.68;95455.88;4935674;28;20043;-80
2023/01/05 11:32:12;;;;;;;44.38;25.45;;;;;;;14.40;49.29;95447.69;4934116;28;20502;-81
2023/01/05 11:34:45;;;;;;;45.05;25.27;;;;;;;14.50;49.12;95436.03;4936133;28;20130;-78
2023/01/05 11:37:10;;;;;;;53.60;25.15;;;;;;;14.39;49.28;95427.41;4943008;28;20050;-77
2023/01/05 11:39:45;;;;;;;42.85;24.70;;;;;;;14.22;49.29;95435.91;4936273;28;20050;-78
2023/01/05 11:42:16;;;;;;;42.80;24.55;;;;;;;13.86;49.81;95430.31;4951285;28;20067;-77
2023/01/05 11:44:57;;;;;;;51.70;26.38;;;;;;;13.49;50.52;95379.63;4941025;28;20057;-78
2023/01/05 11:47:48;;;;;;;48.92;26.05;;;;;;;13.91;51.01;95435.56;4942712;29;20047;-78
2023/01/05 11:50:13;;;;;;;44.42;25.55;;;;;;;13.97;50.88;95425.59;4924623;29;20581;-79
2023/01/05 11:52:49;;;;;;;44.65;24.55;;;;;;;13.82;50.75;95405.28;4945593;28;20142;-77
2023/01/05 11:55:23;;;;;;;46.03;25.83;;;;;;;13.78;51.18;95427.47;4939160;28;20121;-77
2023/01/05 11:57:51;;;;;;;45.00;25.08;;;;;;;13.89;50.43;95424.38;4940992;28;20039;-76
2023/01/05 12:00:31;;;;;;;39.40;22.65;;;;;;;13.76;50.18;95382.44;4941840;28;20035;-77
2023/01/05 12:03:00;;;;;;;44.65;23.85;;;;;;;14.10;49.87;95410.78;4953551;28;20098;-78
2023/01/05 12:06:03;;;;;;;39.35;20.48;;;;;;;14.08;49.64;95415.59;4955196;28;20565;-78
2023/01/05 12:08:38;;;;;;;36.25;21.27;;;;;;;13.39;49.50;95348.59;4944187;28;20473;-78